(°C)
11°
11°
11°
11°
10°
(°C)
ZW
ZW
ZZW
ZZW
Z
Z
ZZW
(km/u)
10-16
9-14
8-12
7-12
7-10
6-10
6-8
(mm)
0
0
0
0
0
0
0
(%)
3
1
2
2
2
2
2

Zonverhoging

/ 29.8°
sun-icon
UV 1
06:06
18:25
Afnemende maan (198°)
19:11
07:20

METAR voor 51.82°N 39.23°O (UUOO)

Tijd Voorwaarden Temperatuur/
Dauwpunt
Wind Zicht Weer Wolken Luchtdruk Wijzigen Ruw
VFR 11°C / 5°C 210º 4kt >10km - Broken Clouds 3200ft 1011 No Significant change. Runway 12: Wet or puddles, 51-100% contamination with 1mm, friction coefficient 0.55. UUOO 221130Z 21002MPS 9999 BKN032 11/05 Q1011 R12/290155 NOSIG RMK QFE745
MVFR 11°C / 5°C 210º variable 160º to 250º 4kt >10km - Broken Clouds 2200ft 1011 No Significant change. Runway 12: Wet or puddles, 51-100% contamination with 1mm, friction coefficient 0.55. UUOO 221100Z 21002MPS 160V250 9999 BKN022 11/05 Q1011 R12/290155 NOSIG RMK QFE745
MVFR 10°C / 6°C 230º variable 190º to 260º 4kt >10km - Broken Clouds 2800ft 1011 No Significant change. Runway 12: Wet or puddles, 51-100% contamination with 1mm, friction coefficient 0.55. UUOO 221030Z 23002MPS 190V260 9999 BKN028 10/06 Q1011 R12/290155 NOSIG RMK QFE744
MVFR 10°C / 5°C 250º 6kt >10km - Broken Clouds 2400ft 1011 No Significant change. Runway 12: Wet or puddles, 51-100% contamination with 1mm, friction coefficient 0.55. UUOO 221000Z 25003MPS 9999 BKN024 10/05 Q1011 R12/290155 NOSIG RMK QFE744
MVFR 10°C / 6°C 250º 6kt >10km - Broken Clouds 2800ft 1011 No Significant change. Runway 12: Wet or puddles, 51-100% contamination with 1mm, friction coefficient 0.55. UUOO 220930Z 25003MPS 9999 BKN028 10/06 Q1011 R12/290155 NOSIG RMK QFE744
MVFR 10°C / 6°C 250º 4kt >10km - Broken Clouds 2100ft 1011 No Significant change. Runway 12: Wet or puddles, 51-100% contamination with 1mm, friction coefficient 0.55. UUOO 220900Z 25002MPS 9999 BKN021 10/06 Q1011 R12/290155 NOSIG RMK QFE744
MVFR 10°C / 6°C 250º 6kt >10km - Broken Clouds 3000ft 1011 No Significant change. Runway 12: Wet or puddles, 51-100% contamination with 1mm, friction coefficient 0.55. UUOO 220830Z 25003MPS 9999 BKN030 10/06 Q1011 R12/290155 NOSIG RMK QFE744
VFR 10°C / 7°C variable 2kt >10km - Clouds and Visibility OK 1011 No Significant change. Runway 12: Wet or puddles, 51-100% contamination with 1mm, friction coefficient 0.55. UUOO 220800Z VRB01MPS CAVOK 10/07 Q1011 R12/290155 NOSIG RMK QFE744
IFR 9°C / 7°C 270º variable 210º to 300º 4kt >10km Light Rain 1.00mm precipitation Vertical Visibility of 0ft. 1011 Temporary: Broken Clouds 400ft. RMK QFE744 . Runway 12: Wet or puddles, 51-100% contamination with 1mm, friction coefficient 0.55. UUOO 220730Z 27002MPS 210V300 9999 -RA BKN007 09/07 Q1011 R12/290155 TEMPO BKN004 RMK QFE744
MVFR 9°C / 7°C 260º 6kt >10km Light Rain 1.00mm precipitation Vertical Visibility of 0ft. 1011 Temporary: Broken Clouds 400ft. RMK QFE744 . Runway 12: Wet or puddles, 51-100% contamination with 1mm, friction coefficient 0.55. UUOO 220700Z 26003MPS 9999 -RA BKN010 09/07 Q1011 R12/290155 TEMPO BKN004 RMK QFE744
VFR 8°C / 7°C 270º 4kt >10km Light Rain 1.00mm precipitation Vertical Visibility of 0ft. 1011 Temporary: Broken Clouds 400ft. RMK QFE744 . Runway 12: Wet or puddles, 51-100% contamination with 1mm, friction coefficient 0.55. UUOO 220630Z 27002MPS 9999 -RA NSC 08/07 Q1011 R12/290155 TEMPO BKN004 RMK QFE744
VFR 8°C / 7°C 250º 4kt 9000m Light Rain 1.00mm precipitation Vertical Visibility of 0ft. 1011 Temporary: Broken Clouds 400ft. RMK QFE744 . Runway 12: Damp, 51-100% contamination with <1mm, friction coefficient 0.60. UUOO 220600Z 25002MPS 9000 -RA NSC 08/07 Q1011 R12/190060 TEMPO BKN004 RMK QFE744
VFR 8°C / 7°C 260º 4kt >10km - Broken Clouds 3900ft 1010 Temporary: Broken Clouds 400ft. RMK QFE744 . Runway 30: Damp, 51-100% contamination with <1mm, friction coefficient 0.60. UUOO 220530Z 26002MPS 9999 BKN039 08/07 Q1010 R30/190060 TEMPO BKN004 RMK QFE744
VFR 8°C / 6°C 260º 4kt >10km - Broken Clouds 3300ft 1010 No Significant change. Runway 30: Damp, 51-100% contamination with <1mm, friction coefficient 0.60. UUOO 220500Z 26002MPS 9999 BKN033 08/06 Q1010 R30/190060 NOSIG RMK QFE744
VFR 8°C / 7°C 280º 4kt >10km - Broken Clouds 3300ft 1010 No Significant change. Runway 30: Damp, 51-100% contamination with <1mm, friction coefficient 0.60. UUOO 220430Z 28002MPS 9999 BKN033 08/07 Q1010 R30/190060 NOSIG RMK QFE744
MVFR 7°C / 7°C 280º 6kt >10km - Overcast 2600ft 1010 No Significant change. Runway 30: Damp, 51-100% contamination with <1mm, friction coefficient 0.60. UUOO 220400Z 28003MPS 9999 OVC026 07/07 Q1010 R30/190060 NOSIG RMK QFE744
MVFR 7°C / 6°C 260º 6kt >10km - Overcast 2700ft 1010 No Significant change. Runway 30: Damp, 51-100% contamination with <1mm, friction coefficient 0.60. UUOO 220330Z 26003MPS 9999 OVC027 07/06 Q1010 R30/190060 NOSIG RMK QFE744
MVFR 8°C / 6°C 270º 6kt >10km - Overcast 2200ft 1010 No Significant change. Runway 30: Damp, 51-100% contamination with <1mm, friction coefficient 0.60. UUOO 220300Z 27003MPS 9999 OVC022 08/06 Q1010 R30/190060 NOSIG RMK QFE744
MVFR 8°C / 7°C 280º 4kt >10km - Overcast 2600ft 1010 No Significant change. Runway 30: Wet or puddles, 51-100% contamination with 1mm, friction coefficient 0.55. UUOO 220230Z 28002MPS 9999 OVC026 08/07 Q1010 R30/290155 NOSIG RMK QFE744
MVFR 9°C / 7°C 270º 4kt >10km - Overcast 1600ft 1010 No Significant change. Runway 30: Wet or puddles, 51-100% contamination with 1mm, friction coefficient 0.55. UUOO 212330Z 27002MPS 9999 OVC016 09/07 Q1010 R30/290155 NOSIG RMK QFE744
MVFR 9°C / 8°C 290º 8kt >10km - Overcast 1200ft 1010 No Significant change. Runway 30: Wet or puddles, 51-100% contamination with 1mm, friction coefficient 0.55. UUOO 212300Z 29004MPS 9999 OVC012 09/08 Q1010 R30/290155 NOSIG RMK QFE744
MVFR 9°C / 8°C 280º 6kt >10km - Overcast 1400ft 1010 No Significant change. Runway 30: Wet or puddles, 51-100% contamination with 1mm, friction coefficient 0.55. UUOO 212230Z 28003MPS 9999 OVC014 09/08 Q1010 R30/290155 NOSIG RMK QFE744
MVFR 9°C / 9°C 280º 4kt >10km - Overcast 2700ft 1010 No Significant change. Runway 30: Wet or puddles, 51-100% contamination with 1mm, friction coefficient 0.55. UUOO 212200Z 28002MPS 9999 OVC027 09/09 Q1010 R30/290155 NOSIG RMK QFE744
MVFR 10°C / 9°C 280º 4kt >10km - Overcast 2500ft 1010 No Significant change. Runway 30: Wet or puddles, 51-100% contamination with 1mm, friction coefficient 0.55. UUOO 212130Z 28002MPS 9999 OVC025 10/09 Q1010 R30/290155 NOSIG RMK QFE744

VFR

11°C / 5°C

[Meer]
Wind 210º 4kt
Zicht >10km
Weer -
Wolken Broken Clouds 3200ft
Luchtdruk 1011
Wijzigen No Significant change. Runway 12: Wet or puddles, 51-100% contamination with 1mm, friction coefficient 0.55.
Ruw UUOO 221130Z 21002MPS 9999 BKN032 11/05 Q1011 R12/290155 NOSIG RMK QFE745

MVFR

11°C / 5°C

[Meer]
Wind 210º variable 160º to 250º 4kt
Zicht >10km
Weer -
Wolken Broken Clouds 2200ft
Luchtdruk 1011
Wijzigen No Significant change. Runway 12: Wet or puddles, 51-100% contamination with 1mm, friction coefficient 0.55.
Ruw UUOO 221100Z 21002MPS 160V250 9999 BKN022 11/05 Q1011 R12/290155 NOSIG RMK QFE745

MVFR

10°C / 6°C

[Meer]
Wind 230º variable 190º to 260º 4kt
Zicht >10km
Weer -
Wolken Broken Clouds 2800ft
Luchtdruk 1011
Wijzigen No Significant change. Runway 12: Wet or puddles, 51-100% contamination with 1mm, friction coefficient 0.55.
Ruw UUOO 221030Z 23002MPS 190V260 9999 BKN028 10/06 Q1011 R12/290155 NOSIG RMK QFE744

MVFR

10°C / 5°C

[Meer]
Wind 250º 6kt
Zicht >10km
Weer -
Wolken Broken Clouds 2400ft
Luchtdruk 1011
Wijzigen No Significant change. Runway 12: Wet or puddles, 51-100% contamination with 1mm, friction coefficient 0.55.
Ruw UUOO 221000Z 25003MPS 9999 BKN024 10/05 Q1011 R12/290155 NOSIG RMK QFE744

MVFR

10°C / 6°C

[Meer]
Wind 250º 6kt
Zicht >10km
Weer -
Wolken Broken Clouds 2800ft
Luchtdruk 1011
Wijzigen No Significant change. Runway 12: Wet or puddles, 51-100% contamination with 1mm, friction coefficient 0.55.
Ruw UUOO 220930Z 25003MPS 9999 BKN028 10/06 Q1011 R12/290155 NOSIG RMK QFE744

MVFR

10°C / 6°C

[Meer]
Wind 250º 4kt
Zicht >10km
Weer -
Wolken Broken Clouds 2100ft
Luchtdruk 1011
Wijzigen No Significant change. Runway 12: Wet or puddles, 51-100% contamination with 1mm, friction coefficient 0.55.
Ruw UUOO 220900Z 25002MPS 9999 BKN021 10/06 Q1011 R12/290155 NOSIG RMK QFE744

MVFR

10°C / 6°C

[Meer]
Wind 250º 6kt
Zicht >10km
Weer -
Wolken Broken Clouds 3000ft
Luchtdruk 1011
Wijzigen No Significant change. Runway 12: Wet or puddles, 51-100% contamination with 1mm, friction coefficient 0.55.
Ruw UUOO 220830Z 25003MPS 9999 BKN030 10/06 Q1011 R12/290155 NOSIG RMK QFE744

VFR

10°C / 7°C

[Meer]
Wind variable 2kt
Zicht >10km
Weer -
Wolken Clouds and Visibility OK
Luchtdruk 1011
Wijzigen No Significant change. Runway 12: Wet or puddles, 51-100% contamination with 1mm, friction coefficient 0.55.
Ruw UUOO 220800Z VRB01MPS CAVOK 10/07 Q1011 R12/290155 NOSIG RMK QFE744

IFR

9°C / 7°C

[Meer]
Wind 270º variable 210º to 300º 4kt
Zicht >10km
Weer Light Rain 1.00mm precipitation
Wolken Vertical Visibility of 0ft.
Luchtdruk 1011
Wijzigen Temporary: Broken Clouds 400ft. RMK QFE744 . Runway 12: Wet or puddles, 51-100% contamination with 1mm, friction coefficient 0.55.
Ruw UUOO 220730Z 27002MPS 210V300 9999 -RA BKN007 09/07 Q1011 R12/290155 TEMPO BKN004 RMK QFE744

MVFR

9°C / 7°C

[Meer]
Wind 260º 6kt
Zicht >10km
Weer Light Rain 1.00mm precipitation
Wolken Vertical Visibility of 0ft.
Luchtdruk 1011
Wijzigen Temporary: Broken Clouds 400ft. RMK QFE744 . Runway 12: Wet or puddles, 51-100% contamination with 1mm, friction coefficient 0.55.
Ruw UUOO 220700Z 26003MPS 9999 -RA BKN010 09/07 Q1011 R12/290155 TEMPO BKN004 RMK QFE744

VFR

8°C / 7°C

[Meer]
Wind 270º 4kt
Zicht >10km
Weer Light Rain 1.00mm precipitation
Wolken Vertical Visibility of 0ft.
Luchtdruk 1011
Wijzigen Temporary: Broken Clouds 400ft. RMK QFE744 . Runway 12: Wet or puddles, 51-100% contamination with 1mm, friction coefficient 0.55.
Ruw UUOO 220630Z 27002MPS 9999 -RA NSC 08/07 Q1011 R12/290155 TEMPO BKN004 RMK QFE744

VFR

8°C / 7°C

[Meer]
Wind 250º 4kt
Zicht 9000m
Weer Light Rain 1.00mm precipitation
Wolken Vertical Visibility of 0ft.
Luchtdruk 1011
Wijzigen Temporary: Broken Clouds 400ft. RMK QFE744 . Runway 12: Damp, 51-100% contamination with <1mm, friction coefficient 0.60.
Ruw UUOO 220600Z 25002MPS 9000 -RA NSC 08/07 Q1011 R12/190060 TEMPO BKN004 RMK QFE744

VFR

8°C / 7°C

[Meer]
Wind 260º 4kt
Zicht >10km
Weer -
Wolken Broken Clouds 3900ft
Luchtdruk 1010
Wijzigen Temporary: Broken Clouds 400ft. RMK QFE744 . Runway 30: Damp, 51-100% contamination with <1mm, friction coefficient 0.60.
Ruw UUOO 220530Z 26002MPS 9999 BKN039 08/07 Q1010 R30/190060 TEMPO BKN004 RMK QFE744

VFR

8°C / 6°C

[Meer]
Wind 260º 4kt
Zicht >10km
Weer -
Wolken Broken Clouds 3300ft
Luchtdruk 1010
Wijzigen No Significant change. Runway 30: Damp, 51-100% contamination with <1mm, friction coefficient 0.60.
Ruw UUOO 220500Z 26002MPS 9999 BKN033 08/06 Q1010 R30/190060 NOSIG RMK QFE744

VFR

8°C / 7°C

[Meer]
Wind 280º 4kt
Zicht >10km
Weer -
Wolken Broken Clouds 3300ft
Luchtdruk 1010
Wijzigen No Significant change. Runway 30: Damp, 51-100% contamination with <1mm, friction coefficient 0.60.
Ruw UUOO 220430Z 28002MPS 9999 BKN033 08/07 Q1010 R30/190060 NOSIG RMK QFE744

MVFR

7°C / 7°C

[Meer]
Wind 280º 6kt
Zicht >10km
Weer -
Wolken Overcast 2600ft
Luchtdruk 1010
Wijzigen No Significant change. Runway 30: Damp, 51-100% contamination with <1mm, friction coefficient 0.60.
Ruw UUOO 220400Z 28003MPS 9999 OVC026 07/07 Q1010 R30/190060 NOSIG RMK QFE744

MVFR

7°C / 6°C

[Meer]
Wind 260º 6kt
Zicht >10km
Weer -
Wolken Overcast 2700ft
Luchtdruk 1010
Wijzigen No Significant change. Runway 30: Damp, 51-100% contamination with <1mm, friction coefficient 0.60.
Ruw UUOO 220330Z 26003MPS 9999 OVC027 07/06 Q1010 R30/190060 NOSIG RMK QFE744

MVFR

8°C / 6°C

[Meer]
Wind 270º 6kt
Zicht >10km
Weer -
Wolken Overcast 2200ft
Luchtdruk 1010
Wijzigen No Significant change. Runway 30: Damp, 51-100% contamination with <1mm, friction coefficient 0.60.
Ruw UUOO 220300Z 27003MPS 9999 OVC022 08/06 Q1010 R30/190060 NOSIG RMK QFE744

MVFR

8°C / 7°C

[Meer]
Wind 280º 4kt
Zicht >10km
Weer -
Wolken Overcast 2600ft
Luchtdruk 1010
Wijzigen No Significant change. Runway 30: Wet or puddles, 51-100% contamination with 1mm, friction coefficient 0.55.
Ruw UUOO 220230Z 28002MPS 9999 OVC026 08/07 Q1010 R30/290155 NOSIG RMK QFE744

MVFR

9°C / 7°C

[Meer]
Wind 270º 4kt
Zicht >10km
Weer -
Wolken Overcast 1600ft
Luchtdruk 1010
Wijzigen No Significant change. Runway 30: Wet or puddles, 51-100% contamination with 1mm, friction coefficient 0.55.
Ruw UUOO 212330Z 27002MPS 9999 OVC016 09/07 Q1010 R30/290155 NOSIG RMK QFE744

MVFR

9°C / 8°C

[Meer]
Wind 290º 8kt
Zicht >10km
Weer -
Wolken Overcast 1200ft
Luchtdruk 1010
Wijzigen No Significant change. Runway 30: Wet or puddles, 51-100% contamination with 1mm, friction coefficient 0.55.
Ruw UUOO 212300Z 29004MPS 9999 OVC012 09/08 Q1010 R30/290155 NOSIG RMK QFE744

MVFR

9°C / 8°C

[Meer]
Wind 280º 6kt
Zicht >10km
Weer -
Wolken Overcast 1400ft
Luchtdruk 1010
Wijzigen No Significant change. Runway 30: Wet or puddles, 51-100% contamination with 1mm, friction coefficient 0.55.
Ruw UUOO 212230Z 28003MPS 9999 OVC014 09/08 Q1010 R30/290155 NOSIG RMK QFE744

MVFR

9°C / 9°C

[Meer]
Wind 280º 4kt
Zicht >10km
Weer -
Wolken Overcast 2700ft
Luchtdruk 1010
Wijzigen No Significant change. Runway 30: Wet or puddles, 51-100% contamination with 1mm, friction coefficient 0.55.
Ruw UUOO 212200Z 28002MPS 9999 OVC027 09/09 Q1010 R30/290155 NOSIG RMK QFE744

MVFR

10°C / 9°C

[Meer]
Wind 280º 4kt
Zicht >10km
Weer -
Wolken Overcast 2500ft
Luchtdruk 1010
Wijzigen No Significant change. Runway 30: Wet or puddles, 51-100% contamination with 1mm, friction coefficient 0.55.
Ruw UUOO 212130Z 28002MPS 9999 OVC025 10/09 Q1010 R30/290155 NOSIG RMK QFE744

TAF voor 51.82°N 39.23°O (UUOO)

From till


From till Wind 240º 6kt. Visibility 10km or more. Broken Clouds 1600ft.

Ruw: TAF UUOO 221100Z 2212/2221 24003MPS 9999 BKN016

Huidige satelliet- en regenbeelden voor 51.82°N 39.23°O

De locatiemarkering is geplaatst op 51.82°N 39.23°O. [Meer]

Het realtime satellietbeeld combineert zichtbaar licht overdag met infraroodstraling 's nachts. 's Nachts is het beeld niet donker, omdat infraroodstraling temperatuurverschillen kan waarnemen. Helaas zijn lage wolken en mist moeilijk te onderscheiden van grondtemperaturen en kunnen dus 's nachts bijna onzichtbaar zijn. Meteosat-satellietbeelden voor Europa worden elke 5 minuten in real time bijgewerkt. De beelden van GOES-16/GOES-17 (Noord- en Zuid-Amerika) en Himawari (Azië) worden om de 10 minuten bijgewerkt.

Copyright 2021 EUMETSAT / meteoblue. / Copyright 2021 meteoblue

Radar en neerslag nowcast voor 51.82°N 39.23°O

Motregen
Licht
Matig
Zwaar
Zeer zwaar
Hail

De locatiemarkering wordt geplaatst op 51.82°N 39.23°O. Deze animation toont de neerslag radar van het afgelopen uur, maar ook de 1h verwachting. Motregen of lichte sneeuwval kan onzichtbaar zijn voor de radar. De neerslagintensiteit wordt met kleuren gecodeerd, van lichtblauw tot oranje.